sensor_id;sensor_type;location;lat;lon;timestamp;pressure;altitude;pressure_sealevel;temperature;humidity
69796;BME280;57073;45.650;9.612;2023-07-08T00:03:24;99804.28;;;22.57;49.56
69796;BME280;57073;45.650;9.612;2023-07-08T00:08:25;99803.25;;;22.53;49.70
69796;BME280;57073;45.650;9.612;2023-07-08T00:13:25;99796.34;;;22.55;49.09
69796;BME280;57073;45.650;9.612;2023-07-08T00:18:25;99799.59;;;22.57;49.25
69796;BME280;57073;45.650;9.612;2023-07-08T00:23:26;99802.53;;;22.61;49.58
69796;BME280;57073;45.650;9.612;2023-07-08T00:28:26;99797.03;;;22.61;49.00
69796;BME280;57073;45.650;9.612;2023-07-08T00:33:26;99786.34;;;22.59;49.75
69796;BME280;57073;45.650;9.612;2023-07-08T00:38:27;99788.50;;;22.62;49.41
69796;BME280;57073;45.650;9.612;2023-07-08T00:43:46;99796.34;;;22.55;50.05
69796;BME280;57073;45.650;9.612;2023-07-08T00:48:48;99795.81;;;22.53;50.07
69796;BME280;57073;45.650;9.612;2023-07-08T00:53:49;99802.94;;;22.54;49.70
69796;BME280;57073;45.650;9.612;2023-07-08T01:04:05;99814.84;;;22.50;50.93
69796;BME280;57073;45.650;9.612;2023-07-08T01:09:08;99813.31;;;22.30;51.24
69796;BME280;57073;45.650;9.612;2023-07-08T01:14:12;99814.72;;;22.27;50.67
69796;BME280;57073;45.650;9.612;2023-07-08T01:19:19;99802.16;;;22.21;51.14
69796;BME280;57073;45.650;9.612;2023-07-08T01:24:21;99820.19;;;22.27;50.81
69796;BME280;57073;45.650;9.612;2023-07-08T01:29:21;99819.41;;;22.27;50.65
69796;BME280;57073;45.650;9.612;2023-07-08T01:34:22;99802.41;;;22.24;51.21
69796;BME280;57073;45.650;9.612;2023-07-08T01:39:24;99798.75;;;22.29;51.38
69796;BME280;57073;45.650;9.612;2023-07-08T01:44:30;99797.72;;;22.25;50.87
69796;BME280;57073;45.650;9.612;2023-07-08T01:49:31;99798.22;;;22.27;51.57
69796;BME280;57073;45.650;9.612;2023-07-08T01:54:33;99777.94;;;22.09;52.16
69796;BME280;57073;45.650;9.612;2023-07-08T01:59:34;99759.53;;;22.23;51.25
69796;BME280;57073;45.650;9.612;2023-07-08T02:04:34;99754.03;;;22.10;50.90
69796;BME280;57073;45.650;9.612;2023-07-08T02:09:34;99759.91;;;22.03;51.60
69796;BME280;57073;45.650;9.612;2023-07-08T02:14:35;99770.00;;;22.08;50.87
69796;BME280;57073;45.650;9.612;2023-07-08T02:19:35;99766.19;;;21.90;50.55
69796;BME280;57073;45.650;9.612;2023-07-08T02:24:36;99755.09;;;21.81;51.31
69796;BME280;57073;45.650;9.612;2023-07-08T02:29:36;99754.88;;;21.77;52.01
69796;BME280;57073;45.650;9.612;2023-07-08T02:34:38;99741.16;;;21.77;52.10
69796;BME280;57073;45.650;9.612;2023-07-08T02:39:38;99738.31;;;21.82;51.51
69796;BME280;57073;45.650;9.612;2023-07-08T02:44:39;99728.75;;;21.80;51.24
69796;BME280;57073;45.650;9.612;2023-07-08T02:49:39;99742.81;;;21.92;51.05
69796;BME280;57073;45.650;9.612;2023-07-08T02:54:39;99763.53;;;21.84;51.81
69796;BME280;57073;45.650;9.612;2023-07-08T02:59:40;99775.97;;;21.96;51.09
69796;BME280;57073;45.650;9.612;2023-07-08T03:04:40;99775.44;;;21.94;51.70
69796;BME280;57073;45.650;9.612;2023-07-08T03:09:41;99789.91;;;21.99;51.69
69796;BME280;57073;45.650;9.612;2023-07-08T03:14:41;99785.41;;;21.90;51.99
69796;BME280;57073;45.650;9.612;2023-07-08T03:19:42;99781.75;;;21.94;51.75
69796;BME280;57073;45.650;9.612;2023-07-08T03:24:42;99778.56;;;21.87;53.50
69796;BME280;57073;45.650;9.612;2023-07-08T03:29:46;99765.56;;;21.79;55.65
69796;BME280;57073;45.650;9.612;2023-07-08T03:34:46;99776.09;;;21.72;55.22
69796;BME280;57073;45.650;9.612;2023-07-08T03:39:46;99784.28;;;21.58;55.72
69796;BME280;57073;45.650;9.612;2023-07-08T03:44:47;99786.22;;;21.57;55.96
69796;BME280;57073;45.650;9.612;2023-07-08T03:49:47;99800.03;;;21.47;58.21
69796;BME280;57073;45.650;9.612;2023-07-08T03:54:47;99802.91;;;21.61;58.03
69796;BME280;57073;45.650;9.612;2023-07-08T03:59:48;99791.31;;;21.45;57.52
69796;BME280;57073;45.650;9.612;2023-07-08T04:04:48;99792.72;;;21.23;57.23
69796;BME280;57073;45.650;9.612;2023-07-08T04:09:50;99782.56;;;21.05;57.01
69796;BME280;57073;45.650;9.612;2023-07-08T04:14:50;99770.50;;;20.82;57.97
69796;BME280;57073;45.650;9.612;2023-07-08T04:19:51;99776.47;;;21.08;56.32
69796;BME280;57073;45.650;9.612;2023-07-08T04:24:51;99764.38;;;21.09;56.39
69796;BME280;57073;45.650;9.612;2023-07-08T04:29:51;99744.63;;;21.12;57.26
69796;BME280;57073;45.650;9.612;2023-07-08T04:34:52;99736.53;;;21.02;58.12
69796;BME280;57073;45.650;9.612;2023-07-08T04:39:52;99739.06;;;21.17;57.37
69796;BME280;57073;45.650;9.612;2023-07-08T04:44:53;99730.25;;;21.20;58.52
69796;BME280;57073;45.650;9.612;2023-07-08T04:49:54;99729.84;;;21.27;58.14
69796;BME280;57073;45.650;9.612;2023-07-08T04:54:54;99723.47;;;21.13;59.28
69796;BME280;57073;45.650;9.612;2023-07-08T04:59:55;99723.56;;;21.07;59.42
69796;BME280;57073;45.650;9.612;2023-07-08T05:04:55;99724.22;;;21.37;58.36
69796;BME280;57073;45.650;9.612;2023-07-08T05:09:56;99708.13;;;21.30;57.61
69796;BME280;57073;45.650;9.612;2023-07-08T05:14:56;99709.91;;;21.59;56.24
69796;BME280;57073;45.650;9.612;2023-07-08T05:19:56;99719.44;;;21.95;55.03
69796;BME280;57073;45.650;9.612;2023-07-08T05:25:00;99721.25;;;21.99;54.69
69796;BME280;57073;45.650;9.612;2023-07-08T05:30:03;99729.47;;;22.32;54.24
69796;BME280;57073;45.650;9.612;2023-07-08T05:35:03;99728.84;;;22.35;53.87
69796;BME280;57073;45.650;9.612;2023-07-08T05:40:04;99729.09;;;22.20;54.94
69796;BME280;57073;45.650;9.612;2023-07-08T05:45:05;99729.66;;;22.36;55.33
69796;BME280;57073;45.650;9.612;2023-07-08T05:50:10;99729.78;;;22.44;54.19
69796;BME280;57073;45.650;9.612;2023-07-08T05:55:10;99756.75;;;22.42;53.66
69796;BME280;57073;45.650;9.612;2023-07-08T06:00:11;99760.09;;;22.39;53.99
69796;BME280;57073;45.650;9.612;2023-07-08T06:05:11;99768.63;;;22.38;53.36
69796;BME280;57073;45.650;9.612;2023-07-08T06:10:12;99761.63;;;22.32;54.09
69796;BME280;57073;45.650;9.612;2023-07-08T06:15:12;99753.16;;;22.97;51.75
69796;BME280;57073;45.650;9.612;2023-07-08T06:20:13;99751.00;;;23.67;49.93
69796;BME280;57073;45.650;9.612;2023-07-08T06:25:13;99750.78;;;24.17;48.14
69796;BME280;57073;45.650;9.612;2023-07-08T06:30:13;99760.34;;;25.00;46.52
69796;BME280;57073;45.650;9.612;2023-07-08T06:35:14;99758.41;;;25.44;44.67
69796;BME280;57073;45.650;9.612;2023-07-08T06:40:15;99766.72;;;25.79;44.01
69796;BME280;57073;45.650;9.612;2023-07-08T06:45:17;99765.78;;;26.22;43.25
69796;BME280;57073;45.650;9.612;2023-07-08T06:50:17;99763.56;;;26.16;42.74
69796;BME280;57073;45.650;9.612;2023-07-08T06:55:18;99760.56;;;26.68;41.63
69796;BME280;57073;45.650;9.612;2023-07-08T07:00:18;99768.91;;;26.89;41.30
69796;BME280;57073;45.650;9.612;2023-07-08T07:05:19;99773.06;;;27.04;41.14
69796;BME280;57073;45.650;9.612;2023-07-08T07:10:20;99762.06;;;26.95;40.41
69796;BME280;57073;45.650;9.612;2023-07-08T07:15:20;99761.31;;;27.07;39.98
69796;BME280;57073;45.650;9.612;2023-07-08T07:20:21;99764.13;;;26.98;40.12
69796;BME280;57073;45.650;9.612;2023-07-08T07:25:21;99765.28;;;27.18;38.81
69796;BME280;57073;45.650;9.612;2023-07-08T07:30:22;99764.13;;;26.98;38.20
69796;BME280;57073;45.650;9.612;2023-07-08T07:35:22;99777.94;;;27.49;36.48
69796;BME280;57073;45.650;9.612;2023-07-08T07:40:22;99790.59;;;27.92;36.19
69796;BME280;57073;45.650;9.612;2023-07-08T07:45:23;99787.94;;;27.96;36.95
69796;BME280;57073;45.650;9.612;2023-07-08T07:50:23;99795.63;;;28.11;34.93
69796;BME280;57073;45.650;9.612;2023-07-08T07:55:24;99801.25;;;28.73;37.21
69796;BME280;57073;45.650;9.612;2023-07-08T08:00:24;99793.56;;;29.32;35.38
69796;BME280;57073;45.650;9.612;2023-07-08T08:05:25;99789.53;;;29.17;36.24
69796;BME280;57073;45.650;9.612;2023-07-08T08:10:25;99802.16;;;28.89;34.95
69796;BME280;57073;45.650;9.612;2023-07-08T08:15:25;99808.06;;;29.00;36.58
69796;BME280;57073;45.650;9.612;2023-07-08T08:20:27;99800.31;;;29.18;32.80
69796;BME280;57073;45.650;9.612;2023-07-08T08:25:27;99799.06;;;29.44;33.79
69796;BME280;57073;45.650;9.612;2023-07-08T08:30:28;99798.22;;;29.56;31.72
69796;BME280;57073;45.650;9.612;2023-07-08T08:35:28;99804.47;;;30.09;33.27
69796;BME280;57073;45.650;9.612;2023-07-08T08:40:29;99808.97;;;29.70;33.58
69796;BME280;57073;45.650;9.612;2023-07-08T08:45:41;99802.19;;;30.27;33.16
69796;BME280;57073;45.650;9.612;2023-07-08T08:50:55;99811.09;;;30.33;32.74
69796;BME280;57073;45.650;9.612;2023-07-08T08:56:20;99804.13;;;30.11;31.87
69796;BME280;57073;45.650;9.612;2023-07-08T09:01:22;99800.03;;;30.20;31.55
69796;BME280;57073;45.650;9.612;2023-07-08T09:06:25;99808.56;;;30.28;32.44
69796;BME280;57073;45.650;9.612;2023-07-08T09:11:48;99808.22;;;30.29;31.62
69796;BME280;57073;45.650;9.612;2023-07-08T09:27:28;99820.59;;;30.48;31.00
69796;BME280;57073;45.650;9.612;2023-07-08T09:32:28;99809.47;;;30.48;30.91
69796;BME280;57073;45.650;9.612;2023-07-08T09:37:38;99811.06;;;30.17;30.81
69796;BME280;57073;45.650;9.612;2023-07-08T09:42:39;99808.47;;;29.80;31.18
69796;BME280;57073;45.650;9.612;2023-07-08T09:47:39;99807.94;;;30.34;31.91
69796;BME280;57073;45.650;9.612;2023-07-08T09:52:41;99805.53;;;30.04;32.05
69796;BME280;57073;45.650;9.612;2023-07-08T09:57:43;99805.06;;;30.15;29.96
69796;BME280;57073;45.650;9.612;2023-07-08T10:02:50;99819.06;;;30.18;30.69
69796;BME280;57073;45.650;9.612;2023-07-08T10:07:55;99813.19;;;29.79;30.32
69796;BME280;57073;45.650;9.612;2023-07-08T10:12:58;99799.75;;;29.81;28.52
69796;BME280;57073;45.650;9.612;2023-07-08T10:18:00;99795.41;;;29.40;27.95
69796;BME280;57073;45.650;9.612;2023-07-08T10:23:09;99802.06;;;29.63;27.50
69796;BME280;57073;45.650;9.612;2023-07-08T10:28:24;99795.63;;;29.35;28.00
69796;BME280;57073;45.650;9.612;2023-07-08T10:33:59;99790.06;;;29.75;28.68
69796;BME280;57073;45.650;9.612;2023-07-08T10:50:08;99774.88;;;28.79;29.35
69796;BME280;57073;45.650;9.612;2023-07-08T10:55:32;99767.16;;;28.48;29.62
69796;BME280;57073;45.650;9.612;2023-07-08T11:06:22;99774.53;;;28.81;30.40
69796;BME280;57073;45.650;9.612;2023-07-08T11:16:34;99758.59;;;29.31;31.87
69796;BME280;57073;45.650;9.612;2023-07-08T11:21:52;99751.56;;;29.21;31.15
69796;BME280;57073;45.650;9.612;2023-07-08T11:32:21;99747.47;;;29.31;30.58
69796;BME280;57073;45.650;9.612;2023-07-08T11:37:24;99738.47;;;29.34;30.60
69796;BME280;57073;45.650;9.612;2023-07-08T11:42:40;99740.56;;;29.24;30.51
69796;BME280;57073;45.650;9.612;2023-07-08T11:47:45;99726.50;;;29.05;30.61
69796;BME280;57073;45.650;9.612;2023-07-08T11:53:12;99723.88;;;29.37;31.05
69796;BME280;57073;45.650;9.612;2023-07-08T11:58:26;99713.91;;;29.36;30.55
69796;BME280;57073;45.650;9.612;2023-07-08T12:03:54;99708.97;;;29.29;31.24
69796;BME280;57073;45.650;9.612;2023-07-08T12:09:00;99700.59;;;29.13;30.80
69796;BME280;57073;45.650;9.612;2023-07-08T12:14:14;99699.72;;;29.25;31.42
69796;BME280;57073;45.650;9.612;2023-07-08T12:19:17;99697.19;;;29.20;31.60
69796;BME280;57073;45.650;9.612;2023-07-08T12:24:19;99704.88;;;29.39;31.25
69796;BME280;57073;45.650;9.612;2023-07-08T12:29:25;99695.00;;;29.25;30.40
69796;BME280;57073;45.650;9.612;2023-07-08T12:34:26;99699.94;;;29.04;30.45
69796;BME280;57073;45.650;9.612;2023-07-08T12:39:33;99693.69;;;28.95;30.10
69796;BME280;57073;45.650;9.612;2023-07-08T12:44:34;99687.41;;;29.10;30.44
69796;BME280;57073;45.650;9.612;2023-07-08T12:49:37;99682.50;;;29.19;31.14
69796;BME280;57073;45.650;9.612;2023-07-08T12:54:38;99673.63;;;29.14;29.75
69796;BME280;57073;45.650;9.612;2023-07-08T12:59:38;99674.88;;;29.16;31.10
69796;BME280;57073;45.650;9.612;2023-07-08T13:04:40;99678.38;;;29.01;30.68
69796;BME280;57073;45.650;9.612;2023-07-08T13:09:45;99681.06;;;29.09;32.21
69796;BME280;57073;45.650;9.612;2023-07-08T13:14:46;99680.00;;;29.02;31.31
69796;BME280;57073;45.650;9.612;2023-07-08T13:19:48;99672.47;;;29.15;31.42
69796;BME280;57073;45.650;9.612;2023-07-08T13:24:48;99666.53;;;29.16;30.89
69796;BME280;57073;45.650;9.612;2023-07-08T13:30:15;99664.16;;;29.15;31.72
69796;BME280;57073;45.650;9.612;2023-07-08T13:40:26;99662.38;;;29.22;30.75
69796;BME280;57073;45.650;9.612;2023-07-08T13:45:31;99664.50;;;29.13;31.74
69796;BME280;57073;45.650;9.612;2023-07-08T13:50:44;99660.81;;;29.09;31.87
69796;BME280;57073;45.650;9.612;2023-07-08T13:55:46;99658.38;;;29.07;31.46
69796;BME280;57073;45.650;9.612;2023-07-08T14:00:46;99650.19;;;28.99;31.92
69796;BME280;57073;45.650;9.612;2023-07-08T14:05:47;99636.53;;;28.94;31.54
69796;BME280;57073;45.650;9.612;2023-07-08T14:10:47;99633.16;;;29.00;31.44
69796;BME280;57073;45.650;9.612;2023-07-08T14:15:48;99637.69;;;29.05;32.11
69796;BME280;57073;45.650;9.612;2023-07-08T14:20:48;99636.56;;;28.81;32.75
69796;BME280;57073;45.650;9.612;2023-07-08T14:25:49;99628.66;;;28.96;32.59
69796;BME280;57073;45.650;9.612;2023-07-08T14:30:49;99630.97;;;29.06;32.69
69796;BME280;57073;45.650;9.612;2023-07-08T14:35:50;99630.19;;;29.05;32.70
69796;BME280;57073;45.650;9.612;2023-07-08T14:40:50;99631.19;;;29.13;32.08
69796;BME280;57073;45.650;9.612;2023-07-08T14:45:56;99621.66;;;29.14;33.09
69796;BME280;57073;45.650;9.612;2023-07-08T14:50:57;99622.13;;;29.16;32.92
69796;BME280;57073;45.650;9.612;2023-07-08T14:56:00;99618.88;;;29.14;32.73
69796;BME280;57073;45.650;9.612;2023-07-08T15:01:19;99612.78;;;29.08;32.41
69796;BME280;57073;45.650;9.612;2023-07-08T15:06:20;99609.78;;;29.01;32.21
69796;BME280;57073;45.650;9.612;2023-07-08T15:11:21;99608.06;;;29.09;32.37
69796;BME280;57073;45.650;9.612;2023-07-08T15:16:23;99603.75;;;29.12;31.70
69796;BME280;57073;45.650;9.612;2023-07-08T15:21:23;99605.00;;;29.14;32.19
69796;BME280;57073;45.650;9.612;2023-07-08T15:26:24;99603.41;;;29.13;31.86
69796;BME280;57073;45.650;9.612;2023-07-08T15:31:26;99599.50;;;29.02;31.94
69796;BME280;57073;45.650;9.612;2023-07-08T15:36:28;99581.81;;;29.06;31.66
69796;BME280;57073;45.650;9.612;2023-07-08T15:41:30;99585.16;;;29.00;32.29
69796;BME280;57073;45.650;9.612;2023-07-08T15:46:36;99573.69;;;29.01;32.01
69796;BME280;57073;45.650;9.612;2023-07-08T15:51:38;99577.53;;;29.09;32.49
69796;BME280;57073;45.650;9.612;2023-07-08T15:56:39;99573.56;;;29.10;33.66
69796;BME280;57073;45.650;9.612;2023-07-08T16:01:41;99563.66;;;29.09;33.84
69796;BME280;57073;45.650;9.612;2023-07-08T16:06:42;99556.94;;;28.98;32.91
69796;BME280;57073;45.650;9.612;2023-07-08T16:11:43;99549.81;;;28.97;32.49
69796;BME280;57073;45.650;9.612;2023-07-08T16:16:44;99538.41;;;28.86;32.76
69796;BME280;57073;45.650;9.612;2023-07-08T16:21:44;99550.09;;;28.79;32.64
69796;BME280;57073;45.650;9.612;2023-07-08T16:26:46;99551.09;;;28.87;32.33
69796;BME280;57073;45.650;9.612;2023-07-08T16:31:47;99536.44;;;28.86;32.29
69796;BME280;57073;45.650;9.612;2023-07-08T16:36:47;99537.13;;;28.83;32.79
69796;BME280;57073;45.650;9.612;2023-07-08T16:41:48;99534.34;;;28.83;32.86
69796;BME280;57073;45.650;9.612;2023-07-08T16:46:49;99529.09;;;28.94;32.43
69796;BME280;57073;45.650;9.612;2023-07-08T16:51:49;99524.00;;;28.96;32.28
69796;BME280;57073;45.650;9.612;2023-07-08T16:56:49;99524.31;;;28.79;32.89
69796;BME280;57073;45.650;9.612;2023-07-08T17:01:50;99519.97;;;28.65;32.74
69796;BME280;57073;45.650;9.612;2023-07-08T17:06:51;99518.19;;;28.45;32.95
69796;BME280;57073;45.650;9.612;2023-07-08T17:11:52;99519.44;;;28.60;32.87
69796;BME280;57073;45.650;9.612;2023-07-08T17:16:53;99509.97;;;28.61;33.10
69796;BME280;57073;45.650;9.612;2023-07-08T17:21:53;99501.91;;;28.43;33.03
69796;BME280;57073;45.650;9.612;2023-07-08T17:26:54;99494.84;;;28.46;32.19
69796;BME280;57073;45.650;9.612;2023-07-08T17:31:54;99497.31;;;28.35;32.68
69796;BME280;57073;45.650;9.612;2023-07-08T17:36:58;99512.53;;;28.41;33.25
69796;BME280;57073;45.650;9.612;2023-07-08T17:41:58;99508.19;;;28.28;33.01
69796;BME280;57073;45.650;9.612;2023-07-08T17:46:59;99516.88;;;28.26;33.35
69796;BME280;57073;45.650;9.612;2023-07-08T17:52:00;99514.44;;;28.25;33.50
69796;BME280;57073;45.650;9.612;2023-07-08T17:57:01;99512.97;;;28.15;33.47
69796;BME280;57073;45.650;9.612;2023-07-08T18:02:02;99504.56;;;28.11;33.57
69796;BME280;57073;45.650;9.612;2023-07-08T18:07:02;99512.63;;;28.17;34.09
69796;BME280;57073;45.650;9.612;2023-07-08T18:12:03;99521.88;;;28.08;33.98
69796;BME280;57073;45.650;9.612;2023-07-08T18:17:04;99529.75;;;27.94;33.91
69796;BME280;57073;45.650;9.612;2023-07-08T18:22:05;99531.13;;;27.88;34.14
69796;BME280;57073;45.650;9.612;2023-07-08T18:27:05;99529.94;;;27.89;33.96
69796;BME280;57073;45.650;9.612;2023-07-08T18:32:10;99531.00;;;27.96;34.30
69796;BME280;57073;45.650;9.612;2023-07-08T18:37:11;99532.06;;;27.92;34.16
69796;BME280;57073;45.650;9.612;2023-07-08T18:42:11;99535.94;;;27.91;33.99
69796;BME280;57073;45.650;9.612;2023-07-08T18:47:12;99543.13;;;27.80;34.25
69796;BME280;57073;45.650;9.612;2023-07-08T18:52:12;99546.56;;;27.76;34.60
69796;BME280;57073;45.650;9.612;2023-07-08T18:57:13;99548.19;;;27.77;34.15
69796;BME280;57073;45.650;9.612;2023-07-08T19:02:35;99548.19;;;27.65;34.55
69796;BME280;57073;45.650;9.612;2023-07-08T19:07:36;99545.19;;;27.70;34.49
69796;BME280;57073;45.650;9.612;2023-07-08T19:12:36;99545.44;;;27.65;34.95
69796;BME280;57073;45.650;9.612;2023-07-08T19:17:36;99553.75;;;27.65;34.59
69796;BME280;57073;45.650;9.612;2023-07-08T19:22:37;99565.28;;;27.55;34.90
69796;BME280;57073;45.650;9.612;2023-07-08T19:27:38;99567.81;;;27.48;35.32
69796;BME280;57073;45.650;9.612;2023-07-08T19:32:42;99565.16;;;27.51;34.87
69796;BME280;57073;45.650;9.612;2023-07-08T19:37:45;99579.69;;;27.48;35.21
69796;BME280;57073;45.650;9.612;2023-07-08T19:42:47;99577.47;;;27.42;35.75
69796;BME280;57073;45.650;9.612;2023-07-08T19:47:48;99579.00;;;27.39;35.84
69796;BME280;57073;45.650;9.612;2023-07-08T19:52:50;99581.19;;;27.33;36.01
69796;BME280;57073;45.650;9.612;2023-07-08T19:57:52;99580.06;;;27.26;36.87
69796;BME280;57073;45.650;9.612;2023-07-08T20:02:57;99592.81;;;27.06;37.54
69796;BME280;57073;45.650;9.612;2023-07-08T20:08:00;99602.41;;;27.08;37.55
69796;BME280;57073;45.650;9.612;2023-07-08T20:13:00;99609.59;;;26.88;39.46
69796;BME280;57073;45.650;9.612;2023-07-08T20:18:01;99617.81;;;26.97;38.23
69796;BME280;57073;45.650;9.612;2023-07-08T20:23:01;99622.19;;;26.98;38.53
69796;BME280;57073;45.650;9.612;2023-07-08T20:28:02;99622.41;;;26.93;38.45
69796;BME280;57073;45.650;9.612;2023-07-08T20:33:03;99632.06;;;26.87;39.44
69796;BME280;57073;45.650;9.612;2023-07-08T20:38:03;99640.31;;;26.66;40.57
69796;BME280;57073;45.650;9.612;2023-07-08T20:43:14;99633.38;;;26.59;40.25
69796;BME280;57073;45.650;9.612;2023-07-08T20:48:18;99633.16;;;26.14;41.32
69796;BME280;57073;45.650;9.612;2023-07-08T20:53:21;99635.19;;;25.96;41.87
69796;BME280;57073;45.650;9.612;2023-07-08T20:58:24;99645.81;;;25.85;41.76
69796;BME280;57073;45.650;9.612;2023-07-08T21:03:25;99645.38;;;25.65;42.88
69796;BME280;57073;45.650;9.612;2023-07-08T21:08:34;99657.47;;;25.91;41.68
69796;BME280;57073;45.650;9.612;2023-07-08T21:13:35;99656.91;;;25.67;42.17
69796;BME280;57073;45.650;9.612;2023-07-08T21:18:38;99674.28;;;25.68;42.46
69796;BME280;57073;45.650;9.612;2023-07-08T21:23:39;99671.97;;;25.79;42.19
69796;BME280;57073;45.650;9.612;2023-07-08T21:28:39;99671.47;;;25.85;42.14
69796;BME280;57073;45.650;9.612;2023-07-08T21:33:40;99672.31;;;25.77;42.61
69796;BME280;57073;45.650;9.612;2023-07-08T21:38:40;99675.44;;;25.67;42.88
69796;BME280;57073;45.650;9.612;2023-07-08T21:43:41;99672.38;;;25.60;43.01
69796;BME280;57073;45.650;9.612;2023-07-08T21:48:41;99674.31;;;25.59;43.11
69796;BME280;57073;45.650;9.612;2023-07-08T21:53:46;99677.88;;;25.60;42.75
69796;BME280;57073;45.650;9.612;2023-07-08T21:58:48;99683.06;;;25.53;42.97
69796;BME280;57073;45.650;9.612;2023-07-08T22:03:48;99685.03;;;25.35;43.53
69796;BME280;57073;45.650;9.612;2023-07-08T22:08:49;99677.09;;;25.33;43.72
69796;BME280;57073;45.650;9.612;2023-07-08T22:13:50;99681.47;;;25.34;43.47
69796;BME280;57073;45.650;9.612;2023-07-08T22:18:52;99682.47;;;25.12;43.34
69796;BME280;57073;45.650;9.612;2023-07-08T22:24:16;99687.31;;;25.06;43.99
69796;BME280;57073;45.650;9.612;2023-07-08T22:29:17;99684.06;;;25.04;44.54
69796;BME280;57073;45.650;9.612;2023-07-08T22:34:18;99692.34;;;25.04;43.74
69796;BME280;57073;45.650;9.612;2023-07-08T22:39:18;99695.13;;;24.96;45.36
69796;BME280;57073;45.650;9.612;2023-07-08T22:44:20;99702.09;;;24.93;44.78
69796;BME280;57073;45.650;9.612;2023-07-08T22:49:21;99701.91;;;24.89;45.18
69796;BME280;57073;45.650;9.612;2023-07-08T22:54:24;99699.28;;;24.76;46.26
69796;BME280;57073;45.650;9.612;2023-07-08T22:59:27;99707.38;;;24.63;46.43
69796;BME280;57073;45.650;9.612;2023-07-08T23:04:28;99703.63;;;24.59;47.40
69796;BME280;57073;45.650;9.612;2023-07-08T23:09:28;99708.66;;;24.57;47.51
69796;BME280;57073;45.650;9.612;2023-07-08T23:14:29;99700.88;;;24.50;47.71
69796;BME280;57073;45.650;9.612;2023-07-08T23:19:32;99692.25;;;24.43;48.30
69796;BME280;57073;45.650;9.612;2023-07-08T23:24:32;99694.44;;;24.24;48.32
69796;BME280;57073;45.650;9.612;2023-07-08T23:29:33;99694.00;;;24.30;48.26
69796;BME280;57073;45.650;9.612;2023-07-08T23:34:33;99699.34;;;24.35;48.77
69796;BME280;57073;45.650;9.612;2023-07-08T23:39:35;99698.50;;;24.26;48.11
69796;BME280;57073;45.650;9.612;2023-07-08T23:44:35;99702.47;;;24.11;48.43
69796;BME280;57073;45.650;9.612;2023-07-08T23:49:36;99710.22;;;24.01;48.78
69796;BME280;57073;45.650;9.612;2023-07-08T23:54:39;99711.72;;;24.07;49.69
69796;BME280;57073;45.650;9.612;2023-07-08T23:59:50;99716.75;;;24.13;48.98
